Time;durP1;ratioP1;P1;durP2;ratioP2;P2;SDS_P1;SDS_P2;PMS_P1;PMS_P2;Temp;Humidity;BMP_temperature;BMP_pressure;BME280_temperature;BME280_humidity;BME280_pressure;Samples;Min_cycle;Max_cycle;Signal;HPM_P1;HPM_P2
2023/10/27 00:01:33;;;;;;;19.15;13.55;;;;;;;10.82;100.00;98223.97;1694207;83;27232;-58
2023/10/27 00:04:02;;;;;;;20.00;14.58;;;;;;;10.81;100.00;98231.86;1694378;83;25494;-57
2023/10/27 00:06:32;;;;;;;17.32;13.32;;;;;;;10.80;100.00;98233.79;1694289;83;25489;-59
2023/10/27 00:09:04;;;;;;;17.52;12.50;;;;;;;10.78;100.00;98236.08;1694162;83;25549;-58
2023/10/27 00:11:31;;;;;;;17.23;13.60;;;;;;;10.78;100.00;98232.02;1686225;83;25470;-58
2023/10/27 00:13:59;;;;;;;16.05;12.78;;;;;;;10.79;100.00;98232.80;1694788;83;27681;-58
2023/10/27 00:16:32;;;;;;;20.65;13.18;;;;;;;10.77;100.00;98225.63;1694977;83;25587;-58
2023/10/27 00:19:01;;;;;;;19.42;13.05;;;;;;;10.75;100.00;98217.09;1693015;83;25664;-58
2023/10/27 00:21:28;;;;;;;16.57;13.38;;;;;;;10.75;100.00;98214.39;1714755;83;25998;-57
2023/10/27 00:23:58;;;;;;;18.40;13.03;;;;;;;10.74;100.00;98214.16;1694557;83;25577;-57
2023/10/27 00:26:25;;;;;;;19.00;13.22;;;;;;;10.72;100.00;98219.93;1714680;82;27307;-58
2023/10/27 00:28:55;;;;;;;19.67;13.03;;;;;;;10.69;100.00;98215.23;1694262;83;25647;-58
2023/10/27 00:31:25;;;;;;;;;;;;;;;10.65;100.00;98210.35;1696698;83;25508;-58
2023/10/27 00:33:52;;;;;;;17.05;12.93;;;;;;;10.63;100.00;98205.88;1714566;83;26297;-56
2023/10/27 00:36:18;;;;;;;17.73;12.70;;;;;;;10.62;100.00;98202.95;1694446;83;25427;-57
2023/10/27 00:38:50;;;;;;;16.97;13.78;;;;;;;10.59;100.00;98202.31;1694431;83;26980;-58
2023/10/27 00:41:23;;;;;;;21.42;14.00;;;;;;;10.58;100.00;98198.84;1671435;83;25730;-59
2023/10/27 00:43:52;;;;;;;17.55;12.28;;;;;;;10.57;100.00;98201.91;1695201;83;25241;-57
2023/10/27 00:46:23;;;;;;;18.42;13.60;;;;;;;10.56;100.00;98203.06;1672761;83;26309;-56
2023/10/27 00:48:50;;;;;;;16.00;13.35;;;;;;;10.55;100.00;98203.61;1696121;83;25580;-58
2023/10/27 00:51:19;;;;;;;18.27;13.60;;;;;;;10.55;100.00;98204.19;1715031;83;27241;-58
2023/10/27 00:53:51;;;;;;;15.03;12.67;;;;;;;10.55;100.00;98206.89;1714712;83;25534;-58
2023/10/27 00:56:22;;;;;;;18.02;13.03;;;;;;;10.54;100.00;98199.91;1695002;83;25508;-57
2023/10/27 00:58:55;;;;;;;17.15;13.13;;;;;;;10.54;100.00;98201.27;1692961;83;26979;-56
2023/10/27 01:01:26;;;;;;;19.40;14.25;;;;;;;10.53;100.00;98206.47;1711127;83;25562;-56
2023/10/27 01:03:56;;;;;;;17.80;13.08;;;;;;;10.51;100.00;98199.30;1694223;83;27738;-56
2023/10/27 01:06:27;;;;;;;18.02;13.90;;;;;;;10.49;100.00;98195.61;1714457;83;25399;-58
2023/10/27 01:08:58;;;;;;;17.90;13.88;;;;;;;10.50;100.00;98196.38;1722267;82;25648;-57
2023/10/27 01:11:26;;;;;;;18.10;13.75;;;;;;;10.50;100.00;98193.67;1725184;83;25663;-59
2023/10/27 01:13:55;;;;;;;19.00;13.60;;;;;;;10.48;100.00;98188.63;1672138;83;25650;-58
2023/10/27 01:16:26;;;;;;;18.95;13.83;;;;;;;10.47;100.00;98191.10;1717633;82;27649;-59
2023/10/27 01:18:53;;;;;;;17.62;13.30;;;;;;;10.46;100.00;98192.27;1717563;82;25661;-58
2023/10/27 01:21:25;;;;;;;15.90;13.08;;;;;;;10.46;100.00;98187.63;1717594;83;25383;-56
2023/10/27 01:23:55;;;;;;;17.65;14.23;;;;;;;10.45;100.00;98189.34;1713279;83;26027;-58
2023/10/27 01:26:25;;;;;;;19.65;13.88;;;;;;;10.44;100.00;98187.21;1631113;83;25649;-58
2023/10/27 01:28:54;;;;;;;15.83;13.53;;;;;;;10.45;100.00;98182.03;1717641;83;26954;-59
2023/10/27 01:31:24;;;;;;;;;;;;;;;10.45;100.00;98184.73;1691448;83;25782;-59
2023/10/27 01:33:50;;;;;;;;;;;;;;;10.46;100.00;98186.27;1686724;83;25640;-57
2023/10/27 01:36:19;;;;;;;23.77;13.30;;;;;;;10.46;100.00;98186.27;1712132;82;26161;-58
2023/10/27 01:38:48;;;;;;;17.60;13.83;;;;;;;10.44;100.00;98190.49;1717804;82;25554;-58
2023/10/27 01:41:18;;;;;;;17.10;13.20;;;;;;;10.43;100.00;98184.28;1688024;83;29562;-58
2023/10/27 01:43:47;;;;;;;19.62;14.10;;;;;;;10.44;100.00;98191.27;1688905;83;25567;-58
2023/10/27 01:46:18;;;;;;;16.30;13.18;;;;;;;10.45;100.00;98187.44;1689016;83;25662;-56
2023/10/27 01:48:45;;;;;;;19.17;14.45;;;;;;;10.45;100.00;98181.23;1689404;83;25585;-57
2023/10/27 01:51:17;;;;;;;19.82;14.85;;;;;;;10.44;100.00;98187.21;1717600;83;25550;-58
2023/10/27 01:53:48;;;;;;;23.38;15.00;;;;;;;10.45;100.00;98182.03;1666406;83;28333;-58
2023/10/27 01:56:18;;;;;;;20.55;14.13;;;;;;;10.43;100.00;98182.16;1689351;83;25164;-58
2023/10/27 01:58:47;;;;;;;;;;;;;;;10.42;100.00;98180.59;1655743;83;25506;-59
2023/10/27 02:01:18;;;;;;;16.62;13.58;;;;;;;10.42;100.00;98183.30;1661296;83;25679;-57
2023/10/27 02:03:45;;;;;;;17.23;13.45;;;;;;;10.40;100.00;98166.11;1666317;83;25652;-58
2023/10/27 02:06:20;;;;;;;20.68;14.13;;;;;;;10.38;100.00;98173.77;1717596;83;27751;-57
2023/10/27 02:08:49;;;;;;;17.57;13.60;;;;;;;10.36;100.00;98172.00;1717199;82;25540;-57
2023/10/27 02:11:19;;;;;;;16.93;13.38;;;;;;;10.37;100.00;98170.08;1615586;84;25435;-58
2023/10/27 02:13:50;;;;;;;19.98;13.90;;;;;;;10.35;100.00;98165.05;1717601;83;25816;-58
2023/10/27 02:16:20;;;;;;;17.67;14.25;;;;;;;10.35;100.00;98166.95;1666662;83;25641;-55
2023/10/27 02:18:50;;;;;;;18.80;14.10;;;;;;;10.35;100.00;98160.20;1665817;83;27277;-54
2023/10/27 02:21:21;;;;;;;18.65;14.30;;;;;;;10.35;100.00;98155.59;1717584;83;25552;-56
2023/10/27 02:23:48;;;;;;;20.88;14.87;;;;;;;10.36;100.00;98161.20;1717669;83;25609;-57
2023/10/27 02:26:17;;;;;;;17.75;14.65;;;;;;;10.35;100.00;98169.66;1602260;86;26991;-56
2023/10/27 02:28:47;;;;;;;18.80;14.85;;;;;;;10.34;100.00;98168.89;1688076;83;25554;-57
2023/10/27 02:31:18;;;;;;;17.50;13.38;;;;;;;10.31;100.00;98156.06;1717605;83;27300;-54
2023/10/27 02:33:45;;;;;;;19.65;14.33;;;;;;;10.32;100.00;98167.12;1652560;83;25440;-57
2023/10/27 02:36:18;;;;;;;21.25;14.07;;;;;;;10.29;100.00;98171.27;1690210;83;25642;-58
2023/10/27 02:38:47;;;;;;;19.75;14.98;;;;;;;10.26;100.00;98169.86;1689210;83;25884;-58
2023/10/27 02:41:17;;;;;;;19.35;14.03;;;;;;;10.25;100.00;98171.79;1689587;83;25659;-54
2023/10/27 02:43:47;;;;;;;18.62;14.13;;;;;;;10.24;100.00;98171.56;1671524;83;28668;-56
2023/10/27 02:46:17;;;;;;;20.72;14.68;;;;;;;10.24;100.00;98169.44;1665041;83;25420;-57
2023/10/27 02:48:44;;;;;;;16.75;13.93;;;;;;;10.23;100.00;98168.67;1717711;83;25580;-57
2023/10/27 02:51:15;;;;;;;16.97;13.60;;;;;;;10.22;100.00;98163.63;1665282;83;25469;-55
2023/10/27 02:53:47;;;;;;;22.85;13.75;;;;;;;10.21;100.00;98156.06;1717750;83;25541;-57
2023/10/27 02:56:17;;;;;;;;;;;;;;;10.18;100.00;98162.76;1693167;83;27686;-57
2023/10/27 02:58:47;;;;;;;19.73;13.78;;;;;;;10.18;100.00;98163.56;1689027;83;26601;-56
2023/10/27 03:01:17;;;;;;;20.05;14.50;;;;;;;10.18;100.00;98164.91;1689146;83;25588;-58
2023/10/27 03:03:47;;;;;;;17.35;14.28;;;;;;;10.17;100.00;98159.28;1717682;83;25630;-54
2023/10/27 03:06:17;;;;;;;17.42;14.13;;;;;;;10.17;100.00;98159.28;1717741;82;25619;-56
2023/10/27 03:08:49;;;;;;;21.87;14.85;;;;;;;10.16;100.00;98155.59;1672428;82;27350;-55
2023/10/27 03:11:18;;;;;;;19.00;13.45;;;;;;;10.15;100.00;98151.31;1700038;83;25654;-54
2023/10/27 03:13:49;;;;;;;22.70;14.47;;;;;;;10.13;100.00;98151.70;1727760;82;25589;-57
2023/10/27 03:16:21;;;;;;;21.02;14.28;;;;;;;10.14;100.00;98149.77;1699381;83;25614;-57
2023/10/27 03:18:48;;;;;;;19.60;13.40;;;;;;;10.13;100.00;98149.55;1727791;82;25452;-58
2023/10/27 03:21:38;;;;;;;16.87;13.55;;;;;;;10.13;100.00;98148.19;1699288;83;28028;-56
2023/10/27 03:24:08;;;;;;;19.70;13.00;;;;;;;10.11;100.00;98144.50;1583691;89;25424;-58
2023/10/27 03:26:38;;;;;;;17.45;13.35;;;;;;;10.09;100.00;98150.25;1609019;89;25699;-58
2023/10/27 03:29:07;;;;;;;;;;;;;;;10.08;100.00;98144.66;1589215;89;26178;-58
2023/10/27 03:31:36;;;;;;;16.52;13.15;;;;;;;10.07;100.00;98144.44;1587944;89;25574;-56
2023/10/27 03:34:04;;;;;;;24.50;14.07;;;;;;;10.07;100.00;98143.66;1608871;89;27378;-57
2023/10/27 03:36:33;;;;;;;20.20;14.68;;;;;;;10.04;100.00;98141.09;1608820;89;25978;-56
2023/10/27 03:39:04;;;;;;;17.90;13.62;;;;;;;10.04;100.00;98137.04;1609049;89;25260;-58
2023/10/27 03:41:31;;;;;;;17.55;13.53;;;;;;;10.03;100.00;98129.32;1586856;89;25619;-59
2023/10/27 03:44:00;;;;;;;16.60;13.35;;;;;;;10.02;100.00;98121.00;1566388;89;25638;-59
2023/10/27 03:46:30;;;;;;;;;;;;;;;10.00;100.00;98110.55;1611333;89;27326;-58
2023/10/27 03:48:58;;;;;;;;;;;;;;;10.00;100.00;98109.77;1600822;89;25558;-58
2023/10/27 03:51:29;;;;;;;18.40;12.60;;;;;;;9.98;100.00;98114.76;1580904;89;25568;-57
2023/10/27 03:53:59;;;;;;;16.40;13.85;;;;;;;9.96;100.00;98111.61;1604696;87;26352;-56
2023/10/27 03:56:26;;;;;;;16.60;12.85;;;;;;;9.94;100.00;98109.84;1574375;87;25714;-56
2023/10/27 03:58:58;;;;;;;;;;;;;;;9.93;100.00;98110.97;1629761;87;27233;-56
2023/10/27 04:01:28;;;;;;;18.62;12.70;;;;;;;9.90;100.00;98115.95;1617546;87;25738;-58
2023/10/27 04:03:57;;;;;;;18.52;13.13;;;;;;;9.88;100.00;98114.19;1617294;87;25482;-56
2023/10/27 04:06:25;;;;;;;15.35;12.18;;;;;;;9.86;100.00;98108.37;1617168;87;25588;-57
2023/10/27 04:08:54;;;;;;;17.42;14.40;;;;;;;9.85;100.00;98108.14;1635985;87;25688;-55
2023/10/27 04:11:31;;;;;;;19.02;13.15;;;;;;;9.84;100.00;98103.91;1595530;87;27343;-58
2023/10/27 04:14:00;;;;;;;18.02;13.53;;;;;;;9.85;100.00;98107.38;1635843;87;25879;-57
2023/10/27 04:16:30;;;;;;;19.82;14.50;;;;;;;9.85;100.00;98101.97;1635941;87;25463;-58
2023/10/27 04:18:59;;;;;;;19.12;13.95;;;;;;;9.82;100.00;98108.85;1617280;87;25614;-58
2023/10/27 04:21:25;;;;;;;18.87;13.70;;;;;;;9.83;100.00;98115.05;1635877;87;25655;-58
2023/10/27 04:23:56;;;;;;;16.55;13.15;;;;;;;9.81;100.00;98121.39;1615586;86;28369;-58
2023/10/27 04:26:23;;;;;;;20.30;12.93;;;;;;;9.81;100.00;98136.23;1596807;89;25652;-59
2023/10/27 04:28:53;;;;;;;19.80;14.43;;;;;;;9.79;100.00;98132.54;1550313;90;25262;-59
2023/10/27 04:31:23;;;;;;;19.27;13.35;;;;;;;9.77;100.00;98134.02;1581203;89;25573;-58
2023/10/27 04:33:50;;;;;;;18.67;14.43;;;;;;;9.73;100.00;98133.37;1611602;88;25588;-58
2023/10/27 04:36:20;;;;;;;18.45;13.85;;;;;;;9.71;100.00;98126.78;1579209;89;27253;-58
2023/10/27 04:38:51;;;;;;;18.55;13.83;;;;;;;9.70;100.00;98125.20;1592738;90;25633;-57
2023/10/27 04:41:20;;;;;;;21.15;14.28;;;;;;;9.71;100.00;98126.20;1602083;89;25287;-58
2023/10/27 04:43:50;;;;;;;;;;;;;;;9.69;100.00;98130.41;1592439;89;25688;-58
2023/10/27 04:46:21;;;;;;;19.70;13.78;;;;;;;9.66;100.00;98130.54;1577879;89;25677;-58
2023/10/27 04:48:47;;;;;;;20.10;14.98;;;;;;;9.63;100.00;98126.42;1576030;90;27276;-57
2023/10/27 04:51:17;;;;;;;20.97;14.53;;;;;;;9.61;100.00;98130.05;1596697;89;25511;-60
2023/10/27 04:53:47;;;;;;;20.68;15.23;;;;;;;9.60;100.00;98129.25;1550826;90;25685;-62
2023/10/27 04:56:17;;;;;;;21.15;14.80;;;;;;;9.57;100.00;98119.19;1601835;89;25703;-61
2023/10/27 04:58:48;;;;;;;23.00;14.33;;;;;;;9.56;100.00;98127.05;1576338;90;25818;-62
2023/10/27 05:01:22;;;;;;;23.65;14.25;;;;;;;9.53;100.00;98129.11;1580886;89;27364;-61
2023/10/27 05:03:46;;;;;;;23.15;15.65;;;;;;;9.51;100.00;98134.09;1592814;89;25682;-60
2023/10/27 05:06:16;;;;;;;20.40;15.08;;;;;;;9.47;100.00;98126.50;1579768;89;25622;-60
2023/10/27 05:08:46;;;;;;;22.93;14.50;;;;;;;9.46;100.00;98127.05;1576699;90;26268;-60
2023/10/27 05:11:17;;;;;;;23.87;15.23;;;;;;;9.46;100.00;98139.77;1597214;89;25492;-59
2023/10/27 05:13:48;;;;;;;20.70;14.55;;;;;;;9.44;100.00;98136.64;1592740;89;27193;-60
2023/10/27 05:16:18;;;;;;;20.02;14.80;;;;;;;9.44;100.00;98132.59;1574443;89;25853;-60
2023/10/27 05:18:47;;;;;;;19.32;14.60;;;;;;;9.43;100.00;98143.97;1570821;90;25684;-60
2023/10/27 05:21:26;;;;;;;22.55;15.32;;;;;;;9.42;100.00;98142.97;1588114;89;25635;-60
2023/10/27 05:23:51;;;;;;;20.68;14.50;;;;;;;9.40;100.00;98149.26;1624860;87;25597;-60
2023/10/27 05:26:19;;;;;;;21.20;13.93;;;;;;;9.38;100.00;98145.59;1630150;88;27673;-60
2023/10/27 05:28:50;;;;;;;19.30;15.28;;;;;;;9.36;100.00;98145.14;1599964;88;25628;-60
2023/10/27 05:31:20;;;;;;;19.23;13.60;;;;;;;9.37;100.00;98152.69;1628025;88;25487;-59
2023/10/27 05:33:47;;;;;;;19.48;14.10;;;;;;;9.36;100.00;98153.23;1611596;88;26616;-60
2023/10/27 05:36:16;;;;;;;22.02;14.38;;;;;;;9.35;100.00;98161.12;1588572;88;25250;-59
2023/10/27 05:38:46;;;;;;;20.60;15.03;;;;;;;9.34;100.00;98160.91;1615003;88;27422;-60
2023/10/27 05:41:19;;;;;;;21.15;15.10;;;;;;;9.34;100.00;98159.55;1632095;87;25734;-60
2023/10/27 05:43:50;;;;;;;21.05;14.47;;;;;;;9.31;100.00;98163.75;1615026;88;25688;-59
2023/10/27 05:46:21;;;;;;;19.00;15.05;;;;;;;9.31;100.00;98169.69;1609202;87;25583;-60
2023/10/27 05:48:49;;;;;;;22.82;15.72;;;;;;;9.30;100.00;98166.22;1626939;88;25666;-59
2023/10/27 05:51:20;;;;;;;20.97;14.53;;;;;;;9.33;100.00;98163.38;1589070;88;28011;-60
2023/10/27 05:53:48;;;;;;;22.73;15.18;;;;;;;9.34;100.00;98167.65;1614878;88;25586;-59
2023/10/27 05:56:18;;;;;;;24.77;15.18;;;;;;;9.33;100.00;98172.27;1610951;88;25570;-61
2023/10/27 05:58:50;;;;;;;20.37;15.25;;;;;;;9.33;100.00;98170.92;1584163;89;26549;-60
2023/10/27 06:01:21;;;;;;;22.90;14.78;;;;;;;9.32;100.00;98181.48;1586598;88;25472;-60
2023/10/27 06:03:48;;;;;;;21.27;14.50;;;;;;;9.31;100.00;98186.69;1610815;88;28070;-59
2023/10/27 06:06:20;;;;;;;24.85;16.32;;;;;;;9.27;100.00;98174.24;1626747;87;25840;-60
2023/10/27 06:08:50;;;;;;;20.92;16.07;;;;;;;9.27;100.00;98180.98;1610288;88;25432;-62
2023/10/27 06:11:20;;;;;;;21.48;15.45;;;;;;;9.26;100.00;98186.16;1590022;88;25675;-58
2023/10/27 06:13:49;;;;;;;22.20;15.58;;;;;;;9.26;100.00;98186.95;1615190;88;25650;-65
2023/10/27 06:16:22;;;;;;;20.72;16.17;;;;;;;9.24;100.00;98189.77;1610695;88;27745;-62
2023/10/27 06:18:52;;;;;;;56.88;37.73;;;;;;;9.25;100.00;98189.43;1588572;88;25647;-61
2023/10/27 06:21:23;;;;;;;36.73;26.55;;;;;;;9.28;100.00;98192.78;1610573;88;25681;-60
2023/10/27 06:23:54;;;;;;;25.23;16.93;;;;;;;9.32;100.00;98198.25;1605123;88;25629;-68
2023/10/27 06:26:25;;;;;;;22.55;15.83;;;;;;;9.35;100.00;98201.59;1585851;88;25564;-60
2023/10/27 06:28:55;;;;;;;24.92;16.37;;;;;;;9.38;100.00;98198.20;1610980;88;27417;-60
2023/10/27 06:31:26;;;;;;;21.87;16.15;;;;;;;9.39;100.00;98201.67;1610833;88;25842;-61
2023/10/27 06:33:54;;;;;;;23.55;16.30;;;;;;;9.39;100.00;98207.07;1615240;88;25593;-61
2023/10/27 06:36:28;;;;;;;20.12;15.85;;;;;;;9.37;100.00;98210.12;1583261;89;26005;-61
2023/10/27 06:38:56;;;;;;;22.02;15.78;;;;;;;9.34;100.00;98205.42;1615173;88;25494;-60
2023/10/27 06:41:27;;;;;;;24.02;16.67;;;;;;;9.37;100.00;98206.65;1589771;88;27497;-60
2023/10/27 06:43:55;;;;;;;21.50;16.42;;;;;;;9.39;100.00;98202.45;1615082;88;25676;-60
2023/10/27 06:46:26;;;;;;;21.40;16.00;;;;;;;9.38;100.00;98200.91;1615120;88;25603;-60
2023/10/27 06:48:53;;;;;;;25.82;17.40;;;;;;;9.41;100.00;98200.75;1626955;88;26210;-61
2023/10/27 06:51:24;;;;;;;25.27;16.55;;;;;;;9.45;100.00;98201.59;1589291;88;25648;-61
2023/10/27 06:53:50;;;;;;;23.10;16.20;;;;;;;9.45;100.00;98202.41;1605160;88;27338;-58
2023/10/27 06:56:20;;;;;;;22.70;16.60;;;;;;;9.47;100.00;98212.84;1626819;88;25963;-60
2023/10/27 06:58:47;;;;;;;22.17;15.32;;;;;;;9.47;100.00;98218.25;1589920;88;25430;-61
2023/10/27 07:01:14;;;;;;;25.62;17.50;;;;;;;9.47;100.00;98211.50;1578666;89;25966;-61
2023/10/27 07:03:42;;;;;;;22.85;16.30;;;;;;;9.47;100.00;98204.75;1615084;88;25645;-59
2023/10/27 07:06:08;;;;;;;26.62;16.70;;;;;;;9.50;100.00;98199.97;1577311;89;28384;-61
2023/10/27 07:08:39;;;;;;;22.95;16.35;;;;;;;9.55;100.00;98195.66;1614779;88;26017;-60
2023/10/27 07:11:05;;;;;;;25.45;17.07;;;;;;;9.64;100.00;98198.17;1615027;87;25500;-60
2023/10/27 07:13:32;;;;;;;29.75;16.80;;;;;;;9.70;100.00;98194.84;1615031;88;25959;-60
2023/10/27 07:15:58;;;;;;;21.97;16.57;;;;;;;9.77;100.00;98189.36;1542905;89;25692;-59
2023/10/27 07:18:26;;;;;;;23.75;17.37;;;;;;;9.86;100.00;98187.25;1615086;88;27190;-60
2023/10/27 07:20:53;;;;;;;22.95;16.40;;;;;;;9.95;100.00;98189.73;1577496;89;25500;-60
2023/10/27 07:23:21;;;;;;;27.87;17.75;;;;;;;9.99;100.00;98187.30;1597129;87;25641;-60
2023/10/27 07:25:48;;;;;;;23.77;16.75;;;;;;;10.06;100.00;98179.35;1627976;86;25588;-61
2023/10/27 07:28:15;;;;;;;26.07;17.45;;;;;;;10.18;100.00;98180.32;1608272;87;25931;-60
2023/10/27 07:30:41;;;;;;;26.68;18.57;;;;;;;10.31;100.00;98181.73;1630039;86;27697;-60
2023/10/27 07:33:11;;;;;;;;;;;;;;;10.46;100.00;98175.47;1631808;86;25676;-61
2023/10/27 07:35:39;;;;;;;25.40;18.67;;;;;;;10.63;100.00;98175.56;1631325;86;25625;-61
2023/10/27 07:38:07;;;;;;;23.87;18.60;;;;;;;10.78;100.00;98179.30;1628862;86;25619;-60
2023/10/27 07:40:35;;;;;;;31.82;19.55;;;;;;;10.97;100.00;98176.30;1632148;86;25634;-60
2023/10/27 07:43:05;;;;;;;25.40;18.32;;;;;;;11.22;100.00;98179.39;1631430;86;27228;-60
2023/10/27 07:45:32;;;;;;;29.60;19.92;;;;;;;11.45;100.00;98176.60;1654707;86;25496;-60
2023/10/27 07:48:00;;;;;;;23.57;18.00;;;;;;;11.86;100.00;98169.19;1654801;86;25772;-60
2023/10/27 07:50:27;;;;;;;30.52;20.20;;;;;;;12.04;100.00;98172.15;1654994;86;25626;-60
2023/10/27 07:52:53;;;;;;;28.38;19.95;;;;;;;12.35;100.00;98163.38;1654995;86;25417;-60
2023/10/27 07:55:22;;;;;;;24.47;18.23;;;;;;;12.52;100.00;98170.30;1631473;86;28131;-60
2023/10/27 07:57:50;;;;;;;19.05;15.55;;;;;;;12.42;100.00;98172.34;1611525;86;25609;-62
2023/10/27 08:00:20;;;;;;;20.17;14.70;;;;;;;12.36;100.00;98178.47;1588519;86;25695;-61
2023/10/27 08:02:46;;;;;;;;;;;;;;;12.27;100.00;98174.13;1633548;86;25683;-61
2023/10/27 08:05:14;;;;;;;23.18;16.60;;;;;;;12.27;100.00;98181.48;1655146;86;25469;-62
2023/10/27 08:07:41;;;;;;;38.20;29.40;;;;;;;12.22;100.00;98178.52;1654917;86;27677;-62
2023/10/27 08:10:11;;;;;;;22.67;18.00;;;;;;;12.18;100.00;98182.36;1609373;86;25671;-62
2023/10/27 08:12:38;;;;;;;23.57;15.95;;;;;;;12.19;100.00;98181.99;1632611;86;25502;-62
2023/10/27 08:15:09;;;;;;;33.58;25.80;;;;;;;12.24;100.00;98180.30;1629904;86;25679;-63
2023/10/27 08:17:38;;;;;;;24.00;16.17;;;;;;;12.23;100.00;98184.16;1655093;86;25569;-62
2023/10/27 08:20:09;;;;;;;23.73;17.35;;;;;;;12.17;100.00;98189.70;1655023;86;28380;-64
2023/10/27 08:22:35;;;;;;;20.52;14.73;;;;;;;12.11;100.00;98189.84;1609522;86;25501;-67
2023/10/27 08:25:08;;;;;;;23.62;15.08;;;;;;;12.12;100.00;98192.73;1595867;87;25585;-60
2023/10/27 08:27:35;;;;;;;20.70;15.25;;;;;;;12.15;100.00;98190.06;1613852;87;25636;-61
2023/10/27 08:30:08;;;;;;;21.57;16.05;;;;;;;12.17;100.00;98185.63;1614286;87;25447;-61
2023/10/27 08:32:35;;;;;;;18.85;15.10;;;;;;;12.28;100.00;98189.83;1589178;87;27503;-60
2023/10/27 08:35:05;;;;;;;18.35;14.98;;;;;;;12.49;100.00;98197.39;1614749;87;25647;-60
2023/10/27 08:37:31;;;;;;;18.25;14.20;;;;;;;12.64;100.00;98203.15;1640892;87;25510;-61
2023/10/27 08:40:01;;;;;;;17.40;13.53;;;;;;;12.66;100.00;98201.42;1613882;87;26618;-61
2023/10/27 08:42:33;;;;;;;15.88;12.93;;;;;;;12.65;100.00;98193.08;1640796;87;25451;-60
2023/10/27 08:45:01;;;;;;;14.35;11.68;;;;;;;12.63;100.00;98198.09;1613412;87;27261;-60
2023/10/27 08:47:34;;;;;;;15.45;11.18;;;;;;;12.60;100.00;98197.48;1640964;87;25587;-59
2023/10/27 08:50:04;;;;;;;14.47;11.00;;;;;;;12.45;100.00;98204.72;1636646;86;25621;-59
2023/10/27 08:52:34;;;;;;;18.07;11.85;;;;;;;12.33;100.00;98201.69;1640812;87;25622;-61
2023/10/27 08:55:07;;;;;;;14.23;10.90;;;;;;;12.25;100.00;98193.27;1588243;87;25494;-60
2023/10/27 08:57:37;;;;;;;14.95;10.98;;;;;;;12.22;100.00;98196.72;1614006;87;27414;-58
2023/10/27 09:00:09;;;;;;;15.65;11.73;;;;;;;12.17;100.00;98198.41;1589163;87;26449;-61
2023/10/27 09:02:38;;;;;;;17.90;12.18;;;;;;;12.13;100.00;98194.30;1613582;87;25444;-61
2023/10/27 09:05:10;;;;;;;15.63;11.65;;;;;;;12.17;100.00;98198.41;1640732;87;26626;-61
2023/10/27 09:07:40;;;;;;;16.23;11.73;;;;;;;12.09;100.00;98188.84;1592548;87;25654;-60
2023/10/27 09:10:10;;;;;;;15.08;10.82;;;;;;;12.06;100.00;98183.39;1610213;87;29647;-61
2023/10/27 09:12:38;;;;;;;15.45;10.75;;;;;;;12.05;100.00;98194.02;1618675;87;25855;-61
2023/10/27 09:15:14;;;;;;;21.80;10.95;;;;;;;12.03;100.00;98185.48;1595200;87;25501;-61
2023/10/27 09:17:58;;;;;;;13.50;10.18;;;;;;;12.00;100.00;98193.76;1593095;87;25996;-60
2023/10/27 09:20:26;;;;;;;15.38;10.60;;;;;;;11.93;100.00;98190.39;1640759;87;25402;-61
2023/10/27 09:23:04;;;;;;;13.20;10.55;;;;;;;11.92;100.00;98190.20;1614131;87;27327;-60
2023/10/27 09:25:35;;;;;;;12.82;9.85;;;;;;;11.88;100.00;98192.63;1648885;85;25597;-60
2023/10/27 09:28:06;;;;;;;15.28;10.58;;;;;;;11.91;100.00;98189.21;1631465;87;25434;-60
2023/10/27 09:30:42;;;;;;;11.25;9.43;;;;;;;11.94;100.00;98180.35;1625942;87;27242;-61
2023/10/27 09:33:20;;;;;;;13.78;10.45;;;;;;;11.91;100.00;98174.31;1604671;87;25651;-63
2023/10/27 09:35:51;;;;;;;14.58;10.55;;;;;;;11.90;100.00;98172.16;1649875;87;28033;-60
2023/10/27 09:38:22;;;;;;;13.32;10.50;;;;;;;11.90;100.00;98172.71;1649682;87;26038;-61
2023/10/27 09:40:52;;;;;;;12.60;9.90;;;;;;;11.94;100.00;98172.23;1626154;87;25497;-61
2023/10/27 09:43:25;;;;;;;11.75;9.28;;;;;;;11.93;100.00;98169.30;1626236;87;26028;-61
2023/10/27 09:46:00;;;;;;;12.30;8.70;;;;;;;11.93;100.00;98177.42;1631556;87;25438;-61
2023/10/27 09:48:32;;;;;;;11.97;9.68;;;;;;;11.93;100.00;98174.13;1649549;86;27865;-60
2023/10/27 09:51:16;;;;;;;10.75;8.95;;;;;;;11.94;100.00;98179.00;1655106;86;25702;-60
2023/10/27 09:53:47;;;;;;;10.90;7.78;;;;;;;11.94;100.00;98181.13;1632724;86;25496;-59
2023/10/27 09:56:17;;;;;;;11.30;8.83;;;;;;;11.93;100.00;98172.01;1649874;86;25634;-61
2023/10/27 09:58:48;;;;;;;16.95;9.50;;;;;;;11.99;100.00;98165.13;1610635;87;25605;-59
2023/10/27 10:01:16;;;;;;;14.93;8.88;;;;;;;12.09;100.00;98165.05;1649850;86;28341;-59
2023/10/27 10:03:43;;;;;;;11.40;8.38;;;;;;;12.24;100.00;98163.24;1639484;80;25479;-61
2023/10/27 10:06:23;;;;;;;13.22;7.85;;;;;;;12.42;100.00;98165.56;1680509;85;25641;-63
2023/10/27 10:09:11;;;;;;;9.63;7.15;;;;;;;12.67;100.00;98160.37;1639434;85;25564;-63
2023/10/27 10:12:10;;;;;;;15.75;11.68;;;;;;;12.84;100.00;98166.33;1614973;87;25619;-63
2023/10/27 10:14:48;;;;;;;10.53;8.73;;;;;;;12.93;100.00;98157.86;1664098;85;27983;-62
2023/10/27 10:17:39;;;;;;;8.85;6.87;;;;;;;13.05;100.00;98158.33;1687836;84;25538;-63
2023/10/27 10:20:11;;;;;;;8.95;6.53;;;;;;;13.19;100.00;98150.08;1626849;86;25435;-63
2023/10/27 10:22:51;;;;;;;11.78;8.08;;;;;;;13.47;100.00;98150.86;1685663;85;25940;-64
2023/10/27 10:25:28;;;;;;;10.32;8.15;;;;;;;13.85;100.00;98149.28;1610836;87;25489;-64
2023/10/27 10:28:18;;;;;;;8.25;6.87;;;;;;;14.04;100.00;98145.45;1685757;85;27850;-65
2023/10/27 10:30:48;;;;;;;8.35;6.45;;;;;;;14.16;100.00;98136.34;1654735;85;25794;-63
2023/10/27 10:33:24;;;;;;;6.50;5.83;;;;;;;14.25;100.00;98130.56;1632920;85;25606;-64
2023/10/27 10:36:22;;;;;;;7.55;6.17;;;;;;;14.33;100.00;98131.33;1620511;87;25644;-66
2023/10/27 10:39:10;;;;;;;8.73;6.35;;;;;;;14.39;99.49;98128.44;1656040;85;25661;-65
2023/10/27 10:42:07;;;;;;;10.85;6.50;;;;;;;14.37;97.04;98116.59;1685467;84;27997;-64
2023/10/27 10:44:38;;;;;;;7.75;6.03;;;;;;;14.34;96.21;98112.50;1646694;86;25602;-65
2023/10/27 10:47:16;;;;;;;8.28;6.37;;;;;;;14.40;97.07;98116.38;1646657;87;25654;-65
2023/10/27 10:49:48;;;;;;;7.03;6.22;;;;;;;14.56;98.16;98110.58;1624398;87;26410;-66
2023/10/27 10:52:20;;;;;;;8.13;6.50;;;;;;;14.74;98.21;98116.03;1624457;87;25674;-65
2023/10/27 10:54:51;;;;;;;8.43;5.75;;;;;;;14.96;98.62;98118.73;1624377;87;27528;-65
2023/10/27 10:57:21;;;;;;;9.23;6.17;;;;;;;15.20;98.18;98121.22;1621569;87;25469;-66
2023/10/27 10:59:56;;;;;;;10.28;6.90;;;;;;;15.37;96.27;98124.47;1621510;87;25707;-66
2023/10/27 11:02:22;;;;;;;6.92;5.85;;;;;;;15.48;94.97;98121.73;1624445;87;25701;-65
2023/10/27 11:04:49;;;;;;;8.73;6.22;;;;;;;15.54;93.36;98126.19;1646609;87;25548;-64
2023/10/27 11:11:23;;;;;;;8.98;6.05;;;;;;;15.38;90.00;98128.77;1646725;87;25441;-63
2023/10/27 11:13:57;;;;;;;9.80;6.17;;;;;;;15.16;87.76;98123.19;1602504;89;25689;-64
2023/10/27 11:16:28;;;;;;;7.97;6.03;;;;;;;15.04;88.01;98131.17;1602206;89;25733;-63
2023/10/27 11:19:02;;;;;;;8.23;6.58;;;;;;;14.92;87.03;98124.95;1608533;89;25542;-62
2023/10/27 11:21:33;;;;;;;8.13;6.40;;;;;;;14.83;87.76;98121.88;1603020;89;28063;-62
2023/10/27 11:24:08;;;;;;;7.80;6.20;;;;;;;14.79;87.44;98118.36;1600407;89;25729;-61
2023/10/27 11:26:45;;;;;;;9.53;6.55;;;;;;;14.74;87.42;98120.11;1571831;89;25657;-63
2023/10/27 11:29:09;;;;;;;6.70;5.45;;;;;;;14.64;86.47;98118.97;1578509;89;25699;-64
2023/10/27 11:31:39;;;;;;;10.48;5.87;;;;;;;14.52;86.93;98114.66;1600236;89;25489;-63
2023/10/27 11:34:09;;;;;;;7.00;4.78;;;;;;;14.45;86.84;98110.55;1599352;89;27359;-64
2023/10/27 11:36:47;;;;;;;8.13;5.90;;;;;;;14.37;86.83;98105.70;1607437;89;25476;-64